Aérodrome :
LOGIN :

S'inscrire | Disclaimer

   EN    FR    IT 

 










Légende :    VFR   VFR Marginal   IFR   IFR Intensif   IFR Très Intensif
Visi : 
Plafond : 
>= 8 km
>= 3000ft
5 à 8 km
1000 à 3000 ft
1500m à 5 km
500 à 1000 ft
800 à 1500m
200 à 500 ft
< 800m
< 200 ft
Symboles :   Orages  Brouillard  Fortes neiges  Fortes précipitations  Vent > 20 kt
SIGMETs :   Divers  Orages  Givrage  Turbulence  Onde Orograph.  Cendres Volcan.






- Altitude de l'aérodrome : 28 ft
- Code IATA : SOZ


LFKS - Solenzara

DERNIER METAR :
  • 041030Z AUTO 15010KT 120V180 CAVOK 28/12 Q1005

METARs EXPIRÉS :
  • 041000Z AUTO 13010KT 110V180 9999 FEW096 30/10 Q1005
  • 040930Z AUTO 14010KT 110V170 CAVOK 30/10 Q1004
  • 040900Z AUTO 14010KT 110V170 CAVOK 29/10 Q1004
  • 040830Z AUTO 20006KT 140V290 CAVOK 28/12 Q1004
  • 040800Z AUTO 27009KT 230V340 CAVOK 28/09 Q1004

TAF TAF LFKS
Valide du 04 à 09h jusqu'au 05 à 09h UTC


040800Z 0409/0509 14010KT CAVOK
BECMG 0411/0414 05010KT
PROB40
TEMPO 0411/0415 VRB10G25KT SCT030CB
BECMG 0418/0420 27005KT



MET'MAP, la Météo Aéronautique d'un coup d'oeil ! - Copyright ORBIFLY Décembre 2007 - Disclaimer

ORBIFLY MET'MAP TEAM :

Programmation & Développement : Alexandra Zaïnal
Sur une idée originale de : Baudouin d'Aumeries
Assistance à la programmation : Marc-Olivier Méhu
Soutien technique & logistique : Manuel Goepfert

Contact : metmap@orbifly.com




SOURCES & CREDITS :

   NOAA